sensor_id;sensor_type;location;lat;lon;timestamp;temperature;humidity
51982;DHT22;37998;53.416;6.730;2023-02-01T00:00:48;6.90;99.90
51982;DHT22;37998;53.416;6.730;2023-02-01T00:03:14;6.80;99.90
51982;DHT22;37998;53.416;6.730;2023-02-01T00:05:40;6.80;99.90
51982;DHT22;37998;53.416;6.730;2023-02-01T00:08:05;6.80;99.90
51982;DHT22;37998;53.416;6.730;2023-02-01T00:10:31;6.80;99.90
51982;DHT22;37998;53.416;6.730;2023-02-01T00:12:56;6.80;99.90
51982;DHT22;37998;53.416;6.730;2023-02-01T00:15:22;6.70;99.90
51982;DHT22;37998;53.416;6.730;2023-02-01T00:17:53;6.70;99.90
51982;DHT22;37998;53.416;6.730;2023-02-01T00:20:19;6.70;99.90
51982;DHT22;37998;53.416;6.730;2023-02-01T00:22:45;6.70;99.90
51982;DHT22;37998;53.416;6.730;2023-02-01T00:25:10;6.70;99.90
51982;DHT22;37998;53.416;6.730;2023-02-01T00:27:36;6.80;99.90
51982;DHT22;37998;53.416;6.730;2023-02-01T00:30:02;6.80;99.90
51982;DHT22;37998;53.416;6.730;2023-02-01T00:32:28;6.70;99.90
51982;DHT22;37998;53.416;6.730;2023-02-01T00:34:53;6.80;99.90
51982;DHT22;37998;53.416;6.730;2023-02-01T00:37:19;6.80;99.90
51982;DHT22;37998;53.416;6.730;2023-02-01T00:39:44;6.80;99.90
51982;DHT22;37998;53.416;6.730;2023-02-01T00:42:10;6.80;99.90
51982;DHT22;37998;53.416;6.730;2023-02-01T00:44:36;6.80;99.90
51982;DHT22;37998;53.416;6.730;2023-02-01T00:47:02;6.90;99.90
51982;DHT22;37998;53.416;6.730;2023-02-01T00:49:28;6.90;99.90
51982;DHT22;37998;53.416;6.730;2023-02-01T00:51:54;6.80;99.90
51982;DHT22;37998;53.416;6.730;2023-02-01T00:54:20;6.80;99.90
51982;DHT22;37998;53.416;6.730;2023-02-01T00:56:45;6.80;99.90
51982;DHT22;37998;53.416;6.730;2023-02-01T00:59:12;6.80;99.90
51982;DHT22;37998;53.416;6.730;2023-02-01T01:01:37;6.80;99.90
51982;DHT22;37998;53.416;6.730;2023-02-01T01:04:03;6.80;99.90
51982;DHT22;37998;53.416;6.730;2023-02-01T01:06:31;6.90;99.90
51982;DHT22;37998;53.416;6.730;2023-02-01T01:08:59;6.90;99.90
51982;DHT22;37998;53.416;6.730;2023-02-01T01:11:28;6.90;99.90
51982;DHT22;37998;53.416;6.730;2023-02-01T01:13:56;6.90;99.90
51982;DHT22;37998;53.416;6.730;2023-02-01T01:16:23;6.90;99.90
51982;DHT22;37998;53.416;6.730;2023-02-01T01:18:50;6.90;99.90
51982;DHT22;37998;53.416;6.730;2023-02-01T01:21:17;6.90;99.90
51982;DHT22;37998;53.416;6.730;2023-02-01T01:23:45;6.90;99.90
51982;DHT22;37998;53.416;6.730;2023-02-01T01:26:15;6.90;99.90
51982;DHT22;37998;53.416;6.730;2023-02-01T01:28:41;6.90;99.90
51982;DHT22;37998;53.416;6.730;2023-02-01T01:31:11;6.80;99.90
51982;DHT22;37998;53.416;6.730;2023-02-01T01:33:38;6.90;99.90
51982;DHT22;37998;53.416;6.730;2023-02-01T01:36:07;6.90;99.90
51982;DHT22;37998;53.416;6.730;2023-02-01T01:38:37;6.90;99.90
51982;DHT22;37998;53.416;6.730;2023-02-01T01:41:03;6.80;99.90
51982;DHT22;37998;53.416;6.730;2023-02-01T01:44:01;6.80;99.90
51982;DHT22;37998;53.416;6.730;2023-02-01T01:46:32;6.80;99.90
51982;DHT22;37998;53.416;6.730;2023-02-01T01:51:59;6.70;99.90
51982;DHT22;37998;53.416;6.730;2023-02-01T01:54:27;6.70;99.90
51982;DHT22;37998;53.416;6.730;2023-02-01T01:56:57;6.60;99.90
51982;DHT22;37998;53.416;6.730;2023-02-01T01:59:24;6.60;99.90
51982;DHT22;37998;53.416;6.730;2023-02-01T02:01:51;6.50;99.90
51982;DHT22;37998;53.416;6.730;2023-02-01T02:04:17;6.50;99.90
51982;DHT22;37998;53.416;6.730;2023-02-01T02:06:56;6.50;99.90
51982;DHT22;37998;53.416;6.730;2023-02-01T02:09:25;6.60;99.90
51982;DHT22;37998;53.416;6.730;2023-02-01T02:11:50;6.50;99.90
51982;DHT22;37998;53.416;6.730;2023-02-01T02:14:17;6.60;99.90
51982;DHT22;37998;53.416;6.730;2023-02-01T02:25:23;6.60;99.90
51982;DHT22;37998;53.416;6.730;2023-02-01T02:39:45;6.30;99.90
51982;DHT22;37998;53.416;6.730;2023-02-01T02:42:44;6.30;99.90
51982;DHT22;37998;53.416;6.730;2023-02-01T02:49:04;6.30;99.90
51982;DHT22;37998;53.416;6.730;2023-02-01T02:51:40;6.30;99.90
51982;DHT22;37998;53.416;6.730;2023-02-01T02:54:31;6.30;99.90
51982;DHT22;37998;53.416;6.730;2023-02-01T03:00:16;6.30;99.90
51982;DHT22;37998;53.416;6.730;2023-02-01T03:03:01;6.30;99.90
51982;DHT22;37998;53.416;6.730;2023-02-01T03:05:47;6.30;99.90
51982;DHT22;37998;53.416;6.730;2023-02-01T03:08:20;6.40;99.90
51982;DHT22;37998;53.416;6.730;2023-02-01T03:11:09;6.40;99.90
51982;DHT22;37998;53.416;6.730;2023-02-01T03:19:04;6.40;99.90
51982;DHT22;37998;53.416;6.730;2023-02-01T03:21:41;6.40;99.90
51982;DHT22;37998;53.416;6.730;2023-02-01T03:25:02;6.40;99.90
51982;DHT22;37998;53.416;6.730;2023-02-01T03:27:30;6.40;99.90
51982;DHT22;37998;53.416;6.730;2023-02-01T03:30:06;6.50;99.90
51982;DHT22;37998;53.416;6.730;2023-02-01T03:32:35;6.50;99.90
51982;DHT22;37998;53.416;6.730;2023-02-01T03:35:29;6.50;99.90
51982;DHT22;37998;53.416;6.730;2023-02-01T03:38:03;6.50;99.90
51982;DHT22;37998;53.416;6.730;2023-02-01T03:40:33;6.50;99.90
51982;DHT22;37998;53.416;6.730;2023-02-01T03:43:03;6.50;99.90
51982;DHT22;37998;53.416;6.730;2023-02-01T03:45:43;6.50;99.90
51982;DHT22;37998;53.416;6.730;2023-02-01T03:48:12;6.50;99.90
51982;DHT22;37998;53.416;6.730;2023-02-01T03:50:47;6.50;99.90
51982;DHT22;37998;53.416;6.730;2023-02-01T03:53:17;6.50;99.90
51982;DHT22;37998;53.416;6.730;2023-02-01T03:55:43;6.50;99.90
51982;DHT22;37998;53.416;6.730;2023-02-01T03:58:20;6.40;99.90
51982;DHT22;37998;53.416;6.730;2023-02-01T04:03:16;6.30;99.90
51982;DHT22;37998;53.416;6.730;2023-02-01T04:05:42;6.20;99.90
51982;DHT22;37998;53.416;6.730;2023-02-01T04:08:08;6.10;99.90
51982;DHT22;37998;53.416;6.730;2023-02-01T04:10:33;6.20;99.90
51982;DHT22;37998;53.416;6.730;2023-02-01T04:12:59;6.30;99.90
51982;DHT22;37998;53.416;6.730;2023-02-01T04:15:24;6.40;99.90
51982;DHT22;37998;53.416;6.730;2023-02-01T04:17:50;6.40;99.90
51982;DHT22;37998;53.416;6.730;2023-02-01T04:20:16;6.30;99.90
51982;DHT22;37998;53.416;6.730;2023-02-01T04:22:41;6.40;99.90
51982;DHT22;37998;53.416;6.730;2023-02-01T04:25:07;6.40;99.90
51982;DHT22;37998;53.416;6.730;2023-02-01T04:27:33;6.40;99.90
51982;DHT22;37998;53.416;6.730;2023-02-01T04:29:59;6.50;99.90
51982;DHT22;37998;53.416;6.730;2023-02-01T04:32:25;6.60;99.90
51982;DHT22;37998;53.416;6.730;2023-02-01T04:34:50;6.60;99.90
51982;DHT22;37998;53.416;6.730;2023-02-01T04:37:16;6.60;99.90
51982;DHT22;37998;53.416;6.730;2023-02-01T04:39:42;6.70;99.90
51982;DHT22;37998;53.416;6.730;2023-02-01T04:42:07;6.80;99.90
51982;DHT22;37998;53.416;6.730;2023-02-01T04:44:34;6.80;99.90
51982;DHT22;37998;53.416;6.730;2023-02-01T04:46:59;6.70;99.90
51982;DHT22;37998;53.416;6.730;2023-02-01T04:49:25;6.70;99.90
51982;DHT22;37998;53.416;6.730;2023-02-01T04:51:52;6.70;99.90
51982;DHT22;37998;53.416;6.730;2023-02-01T04:54:17;6.70;99.90
51982;DHT22;37998;53.416;6.730;2023-02-01T04:56:43;6.70;99.90
51982;DHT22;37998;53.416;6.730;2023-02-01T04:59:11;6.80;99.90
51982;DHT22;37998;53.416;6.730;2023-02-01T05:01:36;6.70;99.90
51982;DHT22;37998;53.416;6.730;2023-02-01T05:04:02;6.70;99.90
51982;DHT22;37998;53.416;6.730;2023-02-01T05:06:28;6.80;99.90
51982;DHT22;37998;53.416;6.730;2023-02-01T05:08:54;6.90;99.90
51982;DHT22;37998;53.416;6.730;2023-02-01T05:11:19;6.80;99.90
51982;DHT22;37998;53.416;6.730;2023-02-01T05:14:03;6.90;99.90
51982;DHT22;37998;53.416;6.730;2023-02-01T05:16:29;6.80;99.90
51982;DHT22;37998;53.416;6.730;2023-02-01T05:18:55;6.80;99.90
51982;DHT22;37998;53.416;6.730;2023-02-01T05:21:21;6.80;99.90
51982;DHT22;37998;53.416;6.730;2023-02-01T05:23:46;6.80;99.90
51982;DHT22;37998;53.416;6.730;2023-02-01T05:26:31;6.80;99.90
51982;DHT22;37998;53.416;6.730;2023-02-01T05:28:57;6.80;99.90
51982;DHT22;37998;53.416;6.730;2023-02-01T05:31:23;7.00;99.90
51982;DHT22;37998;53.416;6.730;2023-02-01T05:33:49;6.80;99.90
51982;DHT22;37998;53.416;6.730;2023-02-01T05:36:15;6.80;99.90
51982;DHT22;37998;53.416;6.730;2023-02-01T05:38:41;6.80;99.90
51982;DHT22;37998;53.416;6.730;2023-02-01T05:41:07;6.90;99.90
51982;DHT22;37998;53.416;6.730;2023-02-01T05:43:32;6.90;99.90
51982;DHT22;37998;53.416;6.730;2023-02-01T05:45:58;6.90;99.90
51982;DHT22;37998;53.416;6.730;2023-02-01T05:48:23;6.90;99.90
51982;DHT22;37998;53.416;6.730;2023-02-01T05:50:49;6.90;99.90
51982;DHT22;37998;53.416;6.730;2023-02-01T05:53:15;6.90;99.90
51982;DHT22;37998;53.416;6.730;2023-02-01T05:55:41;6.90;99.90
51982;DHT22;37998;53.416;6.730;2023-02-01T05:58:07;6.90;99.90
51982;DHT22;37998;53.416;6.730;2023-02-01T06:00:32;6.90;99.90
51982;DHT22;37998;53.416;6.730;2023-02-01T06:02:58;6.90;99.90
51982;DHT22;37998;53.416;6.730;2023-02-01T06:05:24;6.90;99.90
51982;DHT22;37998;53.416;6.730;2023-02-01T06:07:49;6.90;99.90
51982;DHT22;37998;53.416;6.730;2023-02-01T06:10:17;6.90;99.90
51982;DHT22;37998;53.416;6.730;2023-02-01T06:12:43;6.90;99.90
51982;DHT22;37998;53.416;6.730;2023-02-01T06:15:11;6.80;99.90
51982;DHT22;37998;53.416;6.730;2023-02-01T06:17:37;6.80;99.90
51982;DHT22;37998;53.416;6.730;2023-02-01T06:20:04;6.80;99.90
51982;DHT22;37998;53.416;6.730;2023-02-01T06:22:32;6.80;99.90
51982;DHT22;37998;53.416;6.730;2023-02-01T06:24:58;6.80;99.90
51982;DHT22;37998;53.416;6.730;2023-02-01T06:27:24;6.90;99.90
51982;DHT22;37998;53.416;6.730;2023-02-01T06:29:50;6.90;99.90
51982;DHT22;37998;53.416;6.730;2023-02-01T06:32:16;6.90;99.90
51982;DHT22;37998;53.416;6.730;2023-02-01T06:34:43;6.80;99.90
51982;DHT22;37998;53.416;6.730;2023-02-01T06:37:09;6.90;99.90
51982;DHT22;37998;53.416;6.730;2023-02-01T06:39:36;6.90;99.90
51982;DHT22;37998;53.416;6.730;2023-02-01T06:42:02;6.80;99.90
51982;DHT22;37998;53.416;6.730;2023-02-01T06:44:28;6.80;99.90
51982;DHT22;37998;53.416;6.730;2023-02-01T06:46:54;6.80;99.90
51982;DHT22;37998;53.416;6.730;2023-02-01T06:49:20;6.70;99.90
51982;DHT22;37998;53.416;6.730;2023-02-01T06:51:46;6.70;99.90
51982;DHT22;37998;53.416;6.730;2023-02-01T06:54:11;6.70;99.90
51982;DHT22;37998;53.416;6.730;2023-02-01T06:56:37;6.70;99.90
51982;DHT22;37998;53.416;6.730;2023-02-01T06:59:07;6.70;99.90
51982;DHT22;37998;53.416;6.730;2023-02-01T07:01:33;6.90;99.90
51982;DHT22;37998;53.416;6.730;2023-02-01T07:03:59;6.80;99.90
51982;DHT22;37998;53.416;6.730;2023-02-01T07:06:25;6.90;99.90
51982;DHT22;37998;53.416;6.730;2023-02-01T07:08:51;6.90;99.90
51982;DHT22;37998;53.416;6.730;2023-02-01T07:11:18;6.90;99.90
51982;DHT22;37998;53.416;6.730;2023-02-01T07:13:44;6.90;99.90
51982;DHT22;37998;53.416;6.730;2023-02-01T07:16:13;7.00;99.90
51982;DHT22;37998;53.416;6.730;2023-02-01T07:18:39;7.00;99.90
51982;DHT22;37998;53.416;6.730;2023-02-01T07:21:05;7.00;99.90
51982;DHT22;37998;53.416;6.730;2023-02-01T07:23:31;7.00;99.90
51982;DHT22;37998;53.416;6.730;2023-02-01T07:26:02;6.90;99.90
51982;DHT22;37998;53.416;6.730;2023-02-01T07:28:30;7.00;99.90
51982;DHT22;37998;53.416;6.730;2023-02-01T07:31:05;6.90;99.90
51982;DHT22;37998;53.416;6.730;2023-02-01T07:33:31;7.00;99.90
51982;DHT22;37998;53.416;6.730;2023-02-01T07:35:57;6.90;99.90
51982;DHT22;37998;53.416;6.730;2023-02-01T07:38:22;6.90;99.90
51982;DHT22;37998;53.416;6.730;2023-02-01T07:40:49;6.90;99.90
51982;DHT22;37998;53.416;6.730;2023-02-01T07:43:15;6.90;99.90
51982;DHT22;37998;53.416;6.730;2023-02-01T07:45:41;6.90;99.90
51982;DHT22;37998;53.416;6.730;2023-02-01T07:48:06;7.00;99.90
51982;DHT22;37998;53.416;6.730;2023-02-01T07:50:32;6.90;99.90
51982;DHT22;37998;53.416;6.730;2023-02-01T07:53:01;6.90;99.90
51982;DHT22;37998;53.416;6.730;2023-02-01T07:55:27;6.90;99.90
51982;DHT22;37998;53.416;6.730;2023-02-01T07:57:52;6.90;99.90
51982;DHT22;37998;53.416;6.730;2023-02-01T08:00:18;6.90;99.90
51982;DHT22;37998;53.416;6.730;2023-02-01T08:03:04;6.90;99.90
51982;DHT22;37998;53.416;6.730;2023-02-01T08:05:29;6.90;99.90
51982;DHT22;37998;53.416;6.730;2023-02-01T08:07:55;6.90;99.90
51982;DHT22;37998;53.416;6.730;2023-02-01T08:10:21;6.90;99.90
51982;DHT22;37998;53.416;6.730;2023-02-01T08:12:46;6.90;99.90
51982;DHT22;37998;53.416;6.730;2023-02-01T08:15:14;6.90;99.90
51982;DHT22;37998;53.416;6.730;2023-02-01T08:17:46;6.80;99.90
51982;DHT22;37998;53.416;6.730;2023-02-01T08:20:12;6.80;99.90
51982;DHT22;37998;53.416;6.730;2023-02-01T08:22:38;6.90;99.90
51982;DHT22;37998;53.416;6.730;2023-02-01T08:25:05;6.90;99.90
51982;DHT22;37998;53.416;6.730;2023-02-01T08:27:33;6.90;99.90
51982;DHT22;37998;53.416;6.730;2023-02-01T08:29:59;6.90;99.90
51982;DHT22;37998;53.416;6.730;2023-02-01T08:32:26;6.90;99.90
51982;DHT22;37998;53.416;6.730;2023-02-01T08:34:51;6.90;99.90
51982;DHT22;37998;53.416;6.730;2023-02-01T08:37:17;6.90;99.90
51982;DHT22;37998;53.416;6.730;2023-02-01T08:39:43;7.00;99.90
51982;DHT22;37998;53.416;6.730;2023-02-01T08:42:10;7.00;99.90
51982;DHT22;37998;53.416;6.730;2023-02-01T08:44:54;7.00;99.90
51982;DHT22;37998;53.416;6.730;2023-02-01T08:47:20;6.90;99.90
51982;DHT22;37998;53.416;6.730;2023-02-01T08:49:46;6.90;99.90
51982;DHT22;37998;53.416;6.730;2023-02-01T08:52:11;7.00;99.90
51982;DHT22;37998;53.416;6.730;2023-02-01T08:54:37;7.00;99.90
51982;DHT22;37998;53.416;6.730;2023-02-01T08:57:04;7.00;99.90
51982;DHT22;37998;53.416;6.730;2023-02-01T08:59:30;7.00;99.90
51982;DHT22;37998;53.416;6.730;2023-02-01T09:01:55;7.00;99.90
51982;DHT22;37998;53.416;6.730;2023-02-01T09:04:21;7.00;99.90
51982;DHT22;37998;53.416;6.730;2023-02-01T09:06:47;7.00;99.90
51982;DHT22;37998;53.416;6.730;2023-02-01T09:09:12;7.00;99.90
51982;DHT22;37998;53.416;6.730;2023-02-01T09:11:38;7.00;99.90
51982;DHT22;37998;53.416;6.730;2023-02-01T09:14:04;7.00;99.90
51982;DHT22;37998;53.416;6.730;2023-02-01T09:16:29;7.00;99.90
51982;DHT22;37998;53.416;6.730;2023-02-01T09:18:55;7.00;99.90
51982;DHT22;37998;53.416;6.730;2023-02-01T09:21:21;7.00;99.90
51982;DHT22;37998;53.416;6.730;2023-02-01T09:23:46;6.90;99.90
51982;DHT22;37998;53.416;6.730;2023-02-01T09:26:14;7.00;99.90
51982;DHT22;37998;53.416;6.730;2023-02-01T09:28:40;6.90;99.90
51982;DHT22;37998;53.416;6.730;2023-02-01T09:31:05;6.90;99.90
51982;DHT22;37998;53.416;6.730;2023-02-01T09:33:31;6.90;99.90
51982;DHT22;37998;53.416;6.730;2023-02-01T09:36:01;6.90;99.90
51982;DHT22;37998;53.416;6.730;2023-02-01T09:38:28;6.90;99.90
51982;DHT22;37998;53.416;6.730;2023-02-01T09:40:54;6.90;99.90
51982;DHT22;37998;53.416;6.730;2023-02-01T09:43:33;6.90;99.90
51982;DHT22;37998;53.416;6.730;2023-02-01T09:46:23;6.90;99.90
51982;DHT22;37998;53.416;6.730;2023-02-01T09:48:52;6.90;99.90
51982;DHT22;37998;53.416;6.730;2023-02-01T09:51:27;6.90;99.90
51982;DHT22;37998;53.416;6.730;2023-02-01T09:54:18;6.90;99.90
51982;DHT22;37998;53.416;6.730;2023-02-01T10:02:09;6.80;99.90
51982;DHT22;37998;53.416;6.730;2023-02-01T10:04:36;6.80;99.90
51982;DHT22;37998;53.416;6.730;2023-02-01T10:15:32;6.60;99.90
51982;DHT22;37998;53.416;6.730;2023-02-01T10:18:23;6.60;99.90
51982;DHT22;37998;53.416;6.730;2023-02-01T10:26:24;6.40;99.90
51982;DHT22;37998;53.416;6.730;2023-02-01T10:28:57;6.40;99.90
51982;DHT22;37998;53.416;6.730;2023-02-01T10:31:29;6.40;99.90
51982;DHT22;37998;53.416;6.730;2023-02-01T10:33:58;6.50;99.90
51982;DHT22;37998;53.416;6.730;2023-02-01T10:36:49;6.60;99.90
51982;DHT22;37998;53.416;6.730;2023-02-01T10:39:15;6.60;99.90
51982;DHT22;37998;53.416;6.730;2023-02-01T10:41:41;6.70;99.90
51982;DHT22;37998;53.416;6.730;2023-02-01T10:44:23;6.70;99.90
51982;DHT22;37998;53.416;6.730;2023-02-01T10:46:50;6.80;99.90
51982;DHT22;37998;53.416;6.730;2023-02-01T10:52:42;6.80;99.90
51982;DHT22;37998;53.416;6.730;2023-02-01T10:58:04;5.00;99.90
51982;DHT22;37998;53.416;6.730;2023-02-01T11:00:43;4.60;99.90
51982;DHT22;37998;53.416;6.730;2023-02-01T11:03:41;4.30;99.90
51982;DHT22;37998;53.416;6.730;2023-02-01T11:09:20;4.10;99.90
51982;DHT22;37998;53.416;6.730;2023-02-01T11:14:17;4.10;99.90
51982;DHT22;37998;53.416;6.730;2023-02-01T11:16:48;4.20;99.90
51982;DHT22;37998;53.416;6.730;2023-02-01T11:19:16;4.20;99.90
51982;DHT22;37998;53.416;6.730;2023-02-01T11:21:43;4.20;99.90
51982;DHT22;37998;53.416;6.730;2023-02-01T11:24:28;4.10;99.90
51982;DHT22;37998;53.416;6.730;2023-02-01T11:26:59;4.20;99.90
51982;DHT22;37998;53.416;6.730;2023-02-01T11:29:31;4.30;99.90
51982;DHT22;37998;53.416;6.730;2023-02-01T11:31:59;4.30;99.90
51982;DHT22;37998;53.416;6.730;2023-02-01T11:34:38;4.30;99.90
51982;DHT22;37998;53.416;6.730;2023-02-01T11:37:17;4.30;99.90
51982;DHT22;37998;53.416;6.730;2023-02-01T11:39:59;4.40;99.90
51982;DHT22;37998;53.416;6.730;2023-02-01T11:42:27;4.50;99.90
51982;DHT22;37998;53.416;6.730;2023-02-01T11:45:16;4.50;99.90
51982;DHT22;37998;53.416;6.730;2023-02-01T11:47:42;4.60;99.90
51982;DHT22;37998;53.416;6.730;2023-02-01T11:50:16;4.60;99.90
51982;DHT22;37998;53.416;6.730;2023-02-01T12:01:04;4.70;99.90
51982;DHT22;37998;53.416;6.730;2023-02-01T12:06:25;4.80;99.90
51982;DHT22;37998;53.416;6.730;2023-02-01T12:09:16;4.90;99.90
51982;DHT22;37998;53.416;6.730;2023-02-01T12:12:17;4.90;99.90
51982;DHT22;37998;53.416;6.730;2023-02-01T12:15:11;5.00;99.90
51982;DHT22;37998;53.416;6.730;2023-02-01T12:21:04;5.00;99.90
51982;DHT22;37998;53.416;6.730;2023-02-01T12:23:52;5.10;99.90
51982;DHT22;37998;53.416;6.730;2023-02-01T12:26:40;5.10;99.90
51982;DHT22;37998;53.416;6.730;2023-02-01T12:29:51;5.30;99.90
51982;DHT22;37998;53.416;6.730;2023-02-01T12:32:25;5.50;99.90
51982;DHT22;37998;53.416;6.730;2023-02-01T12:37:58;5.90;99.90
51982;DHT22;37998;53.416;6.730;2023-02-01T12:45:58;6.20;99.90
51982;DHT22;37998;53.416;6.730;2023-02-01T12:50:58;6.50;99.90
51982;DHT22;37998;53.416;6.730;2023-02-01T12:53:53;6.70;99.90
51982;DHT22;37998;53.416;6.730;2023-02-01T12:56:48;6.80;99.90
51982;DHT22;37998;53.416;6.730;2023-02-01T12:59:20;6.90;99.90
51982;DHT22;37998;53.416;6.730;2023-02-01T13:01:55;7.00;99.90
51982;DHT22;37998;53.416;6.730;2023-02-01T13:04:32;7.10;99.90
51982;DHT22;37998;53.416;6.730;2023-02-01T13:07:06;7.20;99.90
51982;DHT22;37998;53.416;6.730;2023-02-01T13:12:19;7.40;99.90
51982;DHT22;37998;53.416;6.730;2023-02-01T13:14:53;7.50;99.90
51982;DHT22;37998;53.416;6.730;2023-02-01T13:17:20;7.50;99.90
51982;DHT22;37998;53.416;6.730;2023-02-01T13:19:57;7.60;99.90
51982;DHT22;37998;53.416;6.730;2023-02-01T13:22:30;7.60;99.90
51982;DHT22;37998;53.416;6.730;2023-02-01T13:25:18;7.70;99.90
51982;DHT22;37998;53.416;6.730;2023-02-01T13:27:46;7.70;99.90
51982;DHT22;37998;53.416;6.730;2023-02-01T13:30:26;7.70;99.90
51982;DHT22;37998;53.416;6.730;2023-02-01T13:41:30;7.70;99.90
51982;DHT22;37998;53.416;6.730;2023-02-01T13:44:12;7.80;99.90
51982;DHT22;37998;53.416;6.730;2023-02-01T13:46:41;7.70;99.90
51982;DHT22;37998;53.416;6.730;2023-02-01T13:49:24;7.70;99.90
51982;DHT22;37998;53.416;6.730;2023-02-01T13:51:54;7.70;99.90
51982;DHT22;37998;53.416;6.730;2023-02-01T13:54:37;7.70;99.90
51982;DHT22;37998;53.416;6.730;2023-02-01T13:57:05;7.70;99.90
51982;DHT22;37998;53.416;6.730;2023-02-01T14:05:04;7.60;99.90
51982;DHT22;37998;53.416;6.730;2023-02-01T14:07:33;7.70;99.90
51982;DHT22;37998;53.416;6.730;2023-02-01T14:13:05;7.70;99.90
51982;DHT22;37998;53.416;6.730;2023-02-01T14:15:31;7.80;99.90
51982;DHT22;37998;53.416;6.730;2023-02-01T14:17:56;7.80;99.90
51982;DHT22;37998;53.416;6.730;2023-02-01T14:20:51;7.80;99.90
51982;DHT22;37998;53.416;6.730;2023-02-01T14:23:40;7.80;99.90
51982;DHT22;37998;53.416;6.730;2023-02-01T14:26:09;7.90;99.90
51982;DHT22;37998;53.416;6.730;2023-02-01T14:28:57;7.90;99.90
51982;DHT22;37998;53.416;6.730;2023-02-01T14:33:57;7.80;99.90
51982;DHT22;37998;53.416;6.730;2023-02-01T14:36:24;7.90;99.90
51982;DHT22;37998;53.416;6.730;2023-02-01T14:38:50;7.90;99.90
51982;DHT22;37998;53.416;6.730;2023-02-01T14:41:32;7.90;99.90
51982;DHT22;37998;53.416;6.730;2023-02-01T14:49:34;7.90;99.90
51982;DHT22;37998;53.416;6.730;2023-02-01T14:52:06;7.90;99.90
51982;DHT22;37998;53.416;6.730;2023-02-01T14:54:35;7.90;99.90
51982;DHT22;37998;53.416;6.730;2023-02-01T14:57:02;7.80;99.90
51982;DHT22;37998;53.416;6.730;2023-02-01T14:59:30;7.80;99.90
51982;DHT22;37998;53.416;6.730;2023-02-01T15:01:59;7.90;99.90
51982;DHT22;37998;53.416;6.730;2023-02-01T15:04:27;7.90;99.90
51982;DHT22;37998;53.416;6.730;2023-02-01T15:06:57;7.90;99.90
51982;DHT22;37998;53.416;6.730;2023-02-01T15:09:58;7.90;99.90
51982;DHT22;37998;53.416;6.730;2023-02-01T15:12:27;7.80;99.90
51982;DHT22;37998;53.416;6.730;2023-02-01T15:15:14;7.80;99.90
51982;DHT22;37998;53.416;6.730;2023-02-01T15:17:41;7.80;99.90
51982;DHT22;37998;53.416;6.730;2023-02-01T15:20:14;7.70;99.90
51982;DHT22;37998;53.416;6.730;2023-02-01T15:22:41;7.70;99.90
51982;DHT22;37998;53.416;6.730;2023-02-01T15:25:22;7.70;99.90
51982;DHT22;37998;53.416;6.730;2023-02-01T15:27:48;7.60;99.90
51982;DHT22;37998;53.416;6.730;2023-02-01T15:32:47;7.60;99.90
51982;DHT22;37998;53.416;6.730;2023-02-01T15:35:33;7.60;99.90
51982;DHT22;37998;53.416;6.730;2023-02-01T15:41:05;7.50;99.90
51982;DHT22;37998;53.416;6.730;2023-02-01T15:43:34;7.50;99.90
51982;DHT22;37998;53.416;6.730;2023-02-01T15:46:03;7.50;99.90
51982;DHT22;37998;53.416;6.730;2023-02-01T15:48:58;7.60;99.90
51982;DHT22;37998;53.416;6.730;2023-02-01T15:51:27;7.60;99.90
51982;DHT22;37998;53.416;6.730;2023-02-01T15:54:00;7.50;99.90
51982;DHT22;37998;53.416;6.730;2023-02-01T15:56:28;7.50;99.90
51982;DHT22;37998;53.416;6.730;2023-02-01T15:59:01;7.50;99.90
51982;DHT22;37998;53.416;6.730;2023-02-01T16:01:28;7.40;99.90
51982;DHT22;37998;53.416;6.730;2023-02-01T16:04:18;7.40;99.90
51982;DHT22;37998;53.416;6.730;2023-02-01T16:06:52;7.40;99.90
51982;DHT22;37998;53.416;6.730;2023-02-01T16:09:21;7.30;99.90
51982;DHT22;37998;53.416;6.730;2023-02-01T16:11:57;7.30;99.90
51982;DHT22;37998;53.416;6.730;2023-02-01T16:14:24;7.30;99.90
51982;DHT22;37998;53.416;6.730;2023-02-01T16:16:51;7.40;99.90
51982;DHT22;37998;53.416;6.730;2023-02-01T16:19:17;7.40;99.90
51982;DHT22;37998;53.416;6.730;2023-02-01T16:21:43;7.40;99.90
51982;DHT22;37998;53.416;6.730;2023-02-01T16:24:09;7.40;99.90
51982;DHT22;37998;53.416;6.730;2023-02-01T16:26:35;7.50;99.90
51982;DHT22;37998;53.416;6.730;2023-02-01T16:29:00;7.50;99.90
51982;DHT22;37998;53.416;6.730;2023-02-01T16:31:34;7.40;99.90
51982;DHT22;37998;53.416;6.730;2023-02-01T16:34:00;7.50;99.90
51982;DHT22;37998;53.416;6.730;2023-02-01T16:36:26;7.40;99.90
51982;DHT22;37998;53.416;6.730;2023-02-01T16:38:54;7.40;99.90
51982;DHT22;37998;53.416;6.730;2023-02-01T16:41:21;7.40;99.90
51982;DHT22;37998;53.416;6.730;2023-02-01T16:43:52;7.40;99.90
51982;DHT22;37998;53.416;6.730;2023-02-01T16:46:24;7.40;99.90
51982;DHT22;37998;53.416;6.730;2023-02-01T16:49:01;7.40;99.90
51982;DHT22;37998;53.416;6.730;2023-02-01T16:51:32;7.40;99.90
51982;DHT22;37998;53.416;6.730;2023-02-01T16:53:59;7.40;99.90
51982;DHT22;37998;53.416;6.730;2023-02-01T16:56:30;7.40;99.90
51982;DHT22;37998;53.416;6.730;2023-02-01T16:58:56;7.40;99.90
51982;DHT22;37998;53.416;6.730;2023-02-01T17:01:21;7.40;99.90
51982;DHT22;37998;53.416;6.730;2023-02-01T17:03:47;7.40;99.90
51982;DHT22;37998;53.416;6.730;2023-02-01T17:06:24;7.30;99.90
51982;DHT22;37998;53.416;6.730;2023-02-01T17:08:52;7.40;99.90
51982;DHT22;37998;53.416;6.730;2023-02-01T17:11:18;7.30;99.90
51982;DHT22;37998;53.416;6.730;2023-02-01T17:13:43;7.30;99.90
51982;DHT22;37998;53.416;6.730;2023-02-01T17:16:29;7.30;99.90
51982;DHT22;37998;53.416;6.730;2023-02-01T17:19:13;7.30;99.90
51982;DHT22;37998;53.416;6.730;2023-02-01T17:21:49;7.30;99.90
51982;DHT22;37998;53.416;6.730;2023-02-01T17:24:19;7.30;99.90
51982;DHT22;37998;53.416;6.730;2023-02-01T17:26:46;7.30;99.90
51982;DHT22;37998;53.416;6.730;2023-02-01T17:29:12;7.30;99.90
51982;DHT22;37998;53.416;6.730;2023-02-01T17:31:40;7.40;99.90
51982;DHT22;37998;53.416;6.730;2023-02-01T17:34:09;7.30;99.90
51982;DHT22;37998;53.416;6.730;2023-02-01T17:36:35;7.30;99.90
51982;DHT22;37998;53.416;6.730;2023-02-01T17:39:01;7.20;99.90
51982;DHT22;37998;53.416;6.730;2023-02-01T17:41:27;7.20;99.90
51982;DHT22;37998;53.416;6.730;2023-02-01T17:43:53;7.30;99.90
51982;DHT22;37998;53.416;6.730;2023-02-01T17:46:18;7.20;99.90
51982;DHT22;37998;53.416;6.730;2023-02-01T17:48:45;7.20;99.90
51982;DHT22;37998;53.416;6.730;2023-02-01T17:51:18;7.20;99.90
51982;DHT22;37998;53.416;6.730;2023-02-01T17:53:45;7.20;99.90
51982;DHT22;37998;53.416;6.730;2023-02-01T17:56:15;7.30;99.90
51982;DHT22;37998;53.416;6.730;2023-02-01T17:58:42;7.30;99.90
51982;DHT22;37998;53.416;6.730;2023-02-01T18:01:13;7.30;99.90
51982;DHT22;37998;53.416;6.730;2023-02-01T18:03:39;7.30;99.90
51982;DHT22;37998;53.416;6.730;2023-02-01T18:06:09;7.30;99.90
51982;DHT22;37998;53.416;6.730;2023-02-01T18:08:35;7.30;99.90
51982;DHT22;37998;53.416;6.730;2023-02-01T18:11:01;7.20;99.90
51982;DHT22;37998;53.416;6.730;2023-02-01T18:13:28;7.20;99.90